Time;durP1;ratioP1;P1;durP2;ratioP2;P2;SDS_P1;SDS_P2;PMS_P1;PMS_P2;Temp;Humidity;BMP_temperature;BMP_pressure;BME280_temperature;BME280_humidity;BME280_pressure;Samples;Min_cycle;Max_cycle;Signal;HPM_P1;HPM_P2
2020/12/13 00:00:32;;;;;;;27.70;15.80;;;;;;;1.34;72.59;100539.64;1719605;83;21139;-48
2020/12/13 00:02:59;;;;;;;33.05;14.90;;;;;;;1.40;72.60;100544.20;1719668;83;21183;-47
2020/12/13 00:05:29;;;;;;;27.95;14.53;;;;;;;1.46;72.48;100550.62;1719627;83;21115;-47
2020/12/13 00:07:56;;;;;;;28.50;14.93;;;;;;;1.51;72.39;100556.20;1719589;82;20970;-46
2020/12/13 00:10:25;;;;;;;29.95;15.05;;;;;;;1.56;72.28;100555.09;1719563;83;21076;-46
2020/12/13 00:12:54;;;;;;;29.72;15.55;;;;;;;1.57;72.15;100555.39;1719679;83;20953;-48
2020/12/13 00:15:22;;;;;;;26.68;14.13;;;;;;;1.60;72.14;100555.52;1719265;82;21476;-47
2020/12/13 00:17:51;;;;;;;28.25;14.10;;;;;;;1.62;72.05;100554.28;1692689;83;21579;-46
2020/12/13 00:20:19;;;;;;;25.10;14.98;;;;;;;1.64;72.01;100554.09;1719638;83;21001;-46
2020/12/13 00:22:48;;;;;;;28.03;15.70;;;;;;;1.68;71.96;100558.03;1719547;82;21617;-46
2020/12/13 00:25:15;;;;;;;27.02;14.90;;;;;;;1.73;71.94;100559.59;1719472;83;21230;-46
2020/12/13 00:27:43;;;;;;;27.85;13.98;;;;;;;1.76;71.91;100556.49;1719653;83;22774;-46
2020/12/13 00:30:11;;;;;;;25.15;13.50;;;;;;;1.73;71.83;100557.73;1719432;82;21109;-46
2020/12/13 00:32:39;;;;;;;26.57;13.25;;;;;;;1.70;71.91;100553.28;1719450;83;21519;-48
2020/12/13 00:35:07;;;;;;;26.55;13.98;;;;;;;1.69;71.94;100562.37;1719530;83;21156;-47
2020/12/13 00:37:34;;;;;;;24.23;14.07;;;;;;;1.71;72.03;100557.09;1719654;83;21643;-47
2020/12/13 00:40:03;;;;;;;25.40;14.13;;;;;;;1.77;71.97;100554.97;1719663;82;21730;-48
2020/12/13 00:42:31;;;;;;;29.45;14.38;;;;;;;1.85;71.90;100551.78;1719504;83;21168;-48
2020/12/13 00:44:59;;;;;;;22.48;13.48;;;;;;;1.91;71.87;100550.44;1719593;83;21146;-47
2020/12/13 00:47:29;;;;;;;25.30;13.25;;;;;;;1.96;71.75;100549.31;1719668;83;21131;-47
2020/12/13 00:49:56;;;;;;;22.65;12.82;;;;;;;1.98;71.74;100546.45;1719567;83;21128;-48
2020/12/13 00:52:25;;;;;;;26.00;13.18;;;;;;;1.93;71.68;100521.56;1719310;83;21378;-47
2020/12/13 00:54:54;;;;;;;23.92;13.32;;;;;;;2.07;71.65;100539.31;1719666;83;21112;-48
2020/12/13 00:57:24;;;;;;;22.82;13.20;;;;;;;2.17;71.51;100544.80;1719771;83;21218;-48
2020/12/13 00:59:53;;;;;;;24.55;13.80;;;;;;;2.20;71.27;100549.77;1719566;83;21096;-46
2020/12/13 01:02:21;;;;;;;26.17;15.03;;;;;;;2.23;71.20;100543.97;1719892;83;21064;-46
2020/12/13 01:04:52;;;;;;;23.87;13.78;;;;;;;2.25;71.12;100533.88;1719510;83;21147;-47
2020/12/13 01:07:21;;;;;;;22.93;13.62;;;;;;;2.28;71.00;100537.47;1719737;83;21108;-46
2020/12/13 01:09:49;;;;;;;24.90;14.38;;;;;;;2.29;70.88;100533.26;1719603;83;21052;-46
2020/12/13 01:12:17;;;;;;;23.38;13.85;;;;;;;2.32;70.78;100527.98;1719794;83;21143;-46
2020/12/13 01:14:45;;;;;;;27.02;14.20;;;;;;;2.31;70.71;100527.67;1717093;83;21215;-46
2020/12/13 01:17:13;;;;;;;22.17;12.85;;;;;;;2.32;70.67;100532.00;1706422;84;21371;-46
2020/12/13 01:19:46;;;;;;;24.20;14.35;;;;;;;2.35;70.55;100531.60;1706096;84;21118;-46
2020/12/13 01:22:10;;;;;;;25.43;13.43;;;;;;;2.37;70.54;100528.70;1705805;83;21117;-49
2020/12/13 01:24:39;;;;;;;25.15;13.43;;;;;;;2.40;70.53;100533.16;1705834;82;21196;-47
2020/12/13 01:27:06;;;;;;;23.42;12.93;;;;;;;2.42;70.48;100523.53;1705606;83;21580;-47
2020/12/13 01:29:34;;;;;;;23.57;13.45;;;;;;;2.42;70.37;100518.98;1705980;83;22222;-48
2020/12/13 01:32:02;;;;;;;25.77;12.58;;;;;;;2.39;70.40;100509.20;1706143;82;21100;-46
2020/12/13 01:34:30;;;;;;;23.27;13.15;;;;;;;2.37;70.46;100511.25;1705741;84;21105;-46
2020/12/13 01:36:57;;;;;;;25.35;13.15;;;;;;;2.36;70.46;100517.66;1706275;84;21572;-47
2020/12/13 01:39:25;;;;;;;24.20;13.28;;;;;;;2.30;70.58;100516.11;1706327;84;21086;-46
2020/12/13 01:41:59;;;;;;;21.05;12.05;;;;;;;2.19;70.68;100506.52;1705731;82;21439;-47
2020/12/13 01:44:37;;;;;;;24.25;13.10;;;;;;;2.30;70.74;100523.34;1706212;84;21127;-46
2020/12/13 01:47:06;;;;;;;26.97;13.48;;;;;;;2.28;70.80;100510.13;1706192;82;21491;-46
2020/12/13 01:49:38;;;;;;;26.65;14.03;;;;;;;2.26;70.96;100512.70;1706238;84;21077;-51
2020/12/13 01:55:06;;;;;;;27.05;14.33;;;;;;;2.26;70.96;100505.98;1706043;84;21297;-47
2020/12/13 01:57:39;;;;;;;25.10;12.98;;;;;;;2.21;71.16;100500.41;1706229;83;21207;-48
2020/12/13 02:00:13;;;;;;;24.50;14.00;;;;;;;2.20;71.28;100502.80;1706208;84;21021;-47
2020/12/13 02:02:49;;;;;;;24.37;12.73;;;;;;;2.23;71.30;100497.84;1706326;84;21516;-47
2020/12/13 02:05:19;;;;;;;25.97;12.58;;;;;;;2.25;71.31;100505.69;1705924;84;21187;-46
2020/12/13 02:07:49;;;;;;;21.07;12.55;;;;;;;2.21;71.36;100505.27;1706414;83;22272;-46
2020/12/13 02:10:17;;;;;;;21.45;12.33;;;;;;;2.23;71.45;100507.73;1706073;84;21156;-47
2020/12/13 02:12:44;;;;;;;22.45;12.53;;;;;;;2.29;71.47;100513.12;1705987;83;21060;-48
2020/12/13 02:15:12;;;;;;;23.10;13.03;;;;;;;2.27;71.39;100496.38;1708888;83;21135;-47
2020/12/13 02:17:41;;;;;;;21.12;12.88;;;;;;;2.23;71.49;100499.19;1719762;83;21104;-47
2020/12/13 02:20:12;;;;;;;19.90;12.28;;;;;;;2.22;71.66;100495.34;1719700;83;21534;-47
2020/12/13 02:22:48;;;;;;;21.23;11.80;;;;;;;2.19;71.64;100499.80;1718984;83;21128;-47
2020/12/13 02:25:21;;;;;;;23.47;13.20;;;;;;;2.12;71.85;100501.64;1719973;83;21208;-48
2020/12/13 02:27:51;;;;;;;20.90;12.05;;;;;;;2.03;72.04;100497.02;1717804;83;21104;-47
2020/12/13 02:30:19;;;;;;;22.20;12.73;;;;;;;2.02;72.27;100501.53;1719858;83;21163;-47
2020/12/13 02:32:47;;;;;;;23.38;12.88;;;;;;;2.04;72.38;100503.52;1719603;83;22655;-47
2020/12/13 02:35:14;;;;;;;24.35;14.00;;;;;;;2.07;72.46;100502.26;1719636;83;21229;-47
2020/12/13 02:37:42;;;;;;;25.00;14.23;;;;;;;2.12;72.48;100501.64;1719598;83;21034;-47
2020/12/13 02:40:11;;;;;;;26.97;13.50;;;;;;;2.17;72.41;100501.85;1719633;83;21079;-47
2020/12/13 02:42:38;;;;;;;22.85;12.68;;;;;;;2.16;72.48;100499.69;1719756;83;21579;-47
2020/12/13 02:45:06;;;;;;;20.72;12.53;;;;;;;2.23;72.41;100507.73;1719665;83;21396;-46
2020/12/13 02:47:34;;;;;;;22.20;12.35;;;;;;;2.21;72.39;100505.78;1719592;83;20973;-47
2020/12/13 02:50:03;;;;;;;19.30;11.28;;;;;;;2.21;72.41;100512.49;1719850;83;20914;-46
2020/12/13 02:52:31;;;;;;;21.57;11.38;;;;;;;2.19;72.52;100519.42;1719647;83;21084;-47
2020/12/13 02:54:58;;;;;;;22.25;12.73;;;;;;;2.14;72.65;100517.87;1719691;83;21155;-49
2020/12/13 02:57:26;;;;;;;22.60;11.35;;;;;;;2.12;72.87;100527.97;1719634;83;21591;-47
2020/12/13 02:59:56;;;;;;;21.02;12.60;;;;;;;2.11;73.02;100518.27;1719622;83;21920;-46
2020/12/13 03:02:24;;;;;;;18.12;11.35;;;;;;;2.13;73.10;100520.73;1719682;83;21005;-46
2020/12/13 03:04:52;;;;;;;16.35;9.55;;;;;;;2.15;73.21;100514.14;1719575;83;20949;-46
2020/12/13 03:07:20;;;;;;;13.53;9.18;;;;;;;2.23;73.28;100513.09;1719581;83;21156;-47
2020/12/13 03:09:48;;;;;;;18.75;10.18;;;;;;;2.31;73.14;100504.33;1719719;83;21192;-46
2020/12/13 03:12:16;;;;;;;14.40;9.35;;;;;;;2.39;73.13;100498.46;1719370;83;21610;-46
2020/12/13 03:14:44;;;;;;;17.65;10.53;;;;;;;2.46;73.10;100496.06;1719318;83;21080;-46
2020/12/13 03:17:11;;;;;;;15.13;8.88;;;;;;;2.49;72.89;100494.31;1707456;83;21084;-46
2020/12/13 03:19:40;;;;;;;14.58;9.28;;;;;;;2.56;72.82;100493.77;1706145;83;21129;-47
2020/12/13 03:22:07;;;;;;;12.93;9.05;;;;;;;2.60;72.72;100486.14;1706159;84;21052;-46
2020/12/13 03:24:35;;;;;;;15.28;10.08;;;;;;;2.62;72.68;100488.60;1705879;83;21105;-46
2020/12/13 03:27:02;;;;;;;15.98;9.45;;;;;;;2.59;72.57;100485.31;1706290;83;21570;-47
2020/12/13 03:29:30;;;;;;;14.93;9.85;;;;;;;2.58;72.60;100482.81;1706114;84;21571;-46
2020/12/13 03:31:58;;;;;;;14.90;10.00;;;;;;;2.56;72.63;100487.06;1706241;84;21531;-46
2020/12/13 03:34:27;;;;;;;17.77;10.35;;;;;;;2.52;72.77;100491.19;1705983;84;21378;-46
2020/12/13 03:36:55;;;;;;;17.65;11.48;;;;;;;2.47;72.91;100492.86;1706156;84;21109;-46
2020/12/13 03:39:22;;;;;;;15.15;9.40;;;;;;;2.41;73.12;100488.33;1706109;84;21105;-46
2020/12/13 03:41:50;;;;;;;14.30;9.33;;;;;;;2.35;73.35;100499.38;1706045;84;20958;-46
2020/12/13 03:44:19;;;;;;;14.03;9.13;;;;;;;2.29;73.55;100509.61;1706151;84;21085;-46
2020/12/13 03:46:48;;;;;;;15.70;8.73;;;;;;;2.22;73.79;100510.94;1706197;82;22314;-45
2020/12/13 03:49:16;;;;;;;15.60;10.03;;;;;;;2.19;74.05;100520.77;1705906;84;21214;-47
2020/12/13 03:51:44;;;;;;;15.32;9.95;;;;;;;2.18;74.28;100515.58;1706159;84;21105;-46
2020/12/13 03:54:12;;;;;;;18.65;10.85;;;;;;;2.19;74.45;100511.88;1705888;84;22123;-45
2020/12/13 03:56:39;;;;;;;16.52;11.10;;;;;;;2.25;74.52;100511.05;1706044;84;21199;-46
2020/12/13 03:59:07;;;;;;;18.15;10.20;;;;;;;2.34;74.52;100515.19;1706119;84;21438;-46
2020/12/13 04:01:35;;;;;;;16.97;10.35;;;;;;;2.40;74.40;100512.19;1706098;84;20957;-46
2020/12/13 04:04:03;;;;;;;13.13;7.35;;;;;;;2.41;74.46;100510.63;1706056;83;21104;-46
2020/12/13 04:06:30;;;;;;;18.45;11.75;;;;;;;2.37;74.54;100509.39;1706093;84;21088;-46
2020/12/13 04:08:58;;;;;;;20.23;11.55;;;;;;;2.27;74.75;100511.14;1706099;84;21136;-45
2020/12/13 04:11:26;;;;;;;19.67;12.43;;;;;;;2.25;75.03;100508.37;1706124;83;21356;-46
2020/12/13 04:13:54;;;;;;;21.85;13.03;;;;;;;2.25;75.27;100506.51;1706012;84;21081;-45
2020/12/13 04:16:22;;;;;;;20.97;13.22;;;;;;;2.27;75.39;100496.89;1705790;83;21120;-45
2020/12/13 04:18:50;;;;;;;22.73;12.85;;;;;;;2.31;75.40;100508.36;1706061;83;21126;-46
2020/12/13 04:21:19;;;;;;;25.52;13.55;;;;;;;2.27;75.54;100511.66;1705952;82;21161;-46
2020/12/13 04:23:47;;;;;;;22.00;13.90;;;;;;;2.16;75.80;100517.66;1706137;84;21218;-46
2020/12/13 04:26:15;;;;;;;23.20;14.20;;;;;;;2.10;76.12;100517.97;1706118;84;20950;-47
2020/12/13 04:28:43;;;;;;;24.90;15.58;;;;;;;2.05;76.42;100517.23;1705991;83;20943;-46
2020/12/13 04:31:11;;;;;;;23.42;14.28;;;;;;;2.02;76.69;100515.47;1706295;84;20958;-46
2020/12/13 04:33:38;;;;;;;27.98;16.23;;;;;;;2.04;76.84;100526.32;1706021;84;21117;-46
2020/12/13 04:36:06;;;;;;;26.07;15.53;;;;;;;2.06;76.92;100525.59;1706121;84;21266;-46
2020/12/13 04:38:34;;;;;;;33.75;15.58;;;;;;;2.11;76.94;100520.95;1706170;84;20946;-47
2020/12/13 04:41:01;;;;;;;23.95;14.23;;;;;;;2.14;76.92;100525.09;1706235;84;21501;-47
2020/12/13 04:43:29;;;;;;;31.70;16.80;;;;;;;2.15;77.00;100528.09;1706109;84;21175;-47
2020/12/13 04:45:57;;;;;;;28.38;15.72;;;;;;;2.12;77.06;100525.80;1663485;84;21132;-47
2020/12/13 04:48:25;;;;;;;33.73;17.87;;;;;;;2.12;77.13;100525.80;1706148;84;21814;-47
2020/12/13 04:50:53;;;;;;;25.72;14.55;;;;;;;2.14;77.23;100525.09;1686086;84;20946;-47
2020/12/13 04:53:20;;;;;;;27.87;16.07;;;;;;;2.19;77.16;100518.59;1706280;84;20942;-46
2020/12/13 04:55:56;;;;;;;35.68;17.95;;;;;;;2.18;77.12;100520.94;1664312;84;20994;-49
2020/12/13 04:58:26;;;;;;;32.25;16.70;;;;;;;2.17;77.17;100521.98;1706083;84;21065;-46
2020/12/13 05:00:57;;;;;;;37.90;16.30;;;;;;;2.21;77.12;100520.55;1706099;84;21382;-47
2020/12/13 05:03:25;;;;;;;32.55;18.05;;;;;;;2.23;77.10;100518.47;1706026;84;21077;-45
2020/12/13 05:05:58;;;;;;;35.23;18.55;;;;;;;2.26;77.14;100523.44;1706405;84;21501;-46
2020/12/13 05:08:26;;;;;;;32.75;17.48;;;;;;;2.30;77.10;100521.48;1706075;83;21128;-46
2020/12/13 05:10:54;;;;;;;32.50;17.32;;;;;;;2.35;76.94;100516.84;1706228;84;21092;-47
2020/12/13 05:13:21;;;;;;;32.83;16.65;;;;;;;2.33;76.85;100501.43;1706112;84;22842;-47
2020/12/13 05:15:50;;;;;;;29.92;15.63;;;;;;;2.37;76.92;100503.19;1706960;83;21041;-47
2020/12/13 05:18:18;;;;;;;31.20;16.73;;;;;;;2.42;76.74;100508.77;1719760;83;21197;-47
2020/12/13 05:20:46;;;;;;;31.27;16.40;;;;;;;2.43;76.72;100517.12;1719598;83;21171;-46
2020/12/13 05:23:13;;;;;;;34.63;17.65;;;;;;;2.40;76.69;100508.98;1719561;83;21482;-45
2020/12/13 05:25:41;;;;;;;32.35;17.15;;;;;;;2.39;76.74;100507.86;1719846;82;21367;-45
2020/12/13 05:28:11;;;;;;;26.30;14.90;;;;;;;2.37;76.80;100512.07;1719565;83;21021;-46
2020/12/13 05:30:45;;;;;;;23.47;13.45;;;;;;;2.38;76.73;100511.03;1719600;83;20989;-46
2020/12/13 05:33:25;;;;;;;26.25;15.20;;;;;;;2.40;76.78;100517.04;1719818;82;21144;-46
2020/12/13 05:35:49;;;;;;;28.55;14.87;;;;;;;2.42;76.75;100517.64;1718948;83;21143;-46
2020/12/13 05:38:17;;;;;;;26.15;14.18;;;;;;;2.41;76.68;100513.31;1719873;83;21406;-47
2020/12/13 05:40:44;;;;;;;24.52;13.93;;;;;;;2.42;76.68;100521.67;1719486;83;21159;-46
2020/12/13 05:43:19;;;;;;;25.08;14.73;;;;;;;2.41;76.64;100521.38;1719681;82;21021;-46
2020/12/13 05:53:29;;;;;;;19.13;11.57;;;;;;;2.47;76.60;100519.71;1889812;75;22687;-48
2020/12/13 05:55:58;;;;;;;15.13;8.80;;;;;;;2.40;76.70;100519.73;1855317;76;20934;-47
2020/12/13 05:58:26;;;;;;;19.82;10.78;;;;;;;2.42;76.73;100527.05;1860716;77;21464;-47
2020/12/13 06:00:56;;;;;;;24.57;14.00;;;;;;;2.43;76.76;100520.63;1860840;77;20978;-47
2020/12/13 06:03:36;;;;;;;22.48;11.48;;;;;;;2.40;76.77;100515.70;1860666;77;21006;-47
2020/12/13 06:06:09;;;;;;;26.48;13.83;;;;;;;2.39;76.87;100514.57;1860741;77;21768;-46
2020/12/13 06:09:08;;;;;;;28.38;14.28;;;;;;;2.37;77.00;100515.27;1861007;77;20926;-46
2020/12/13 06:11:40;;;;;;;26.55;14.50;;;;;;;2.30;77.15;100518.80;1860742;77;21353;-46
2020/12/13 06:14:15;;;;;;;25.45;13.20;;;;;;;2.24;77.42;100510.23;1876343;76;21579;-47
2020/12/13 06:16:43;;;;;;;29.82;13.45;;;;;;;2.23;77.61;100517.12;1879941;76;20997;-47
2020/12/13 06:19:14;;;;;;;25.85;14.38;;;;;;;2.17;77.79;100514.75;1806727;79;21040;-47
2020/12/13 06:21:43;;;;;;;27.27;14.00;;;;;;;2.15;78.01;100512.80;1806832;79;21029;-46
2020/12/13 06:24:11;;;;;;;34.65;17.50;;;;;;;2.20;78.09;100515.70;1822534;78;21186;-47
2020/12/13 06:26:38;;;;;;;34.20;17.48;;;;;;;2.23;78.11;100499.19;1789783;78;21068;-48
2020/12/13 06:29:06;;;;;;;39.20;19.82;;;;;;;2.30;78.05;100512.08;1806894;79;21044;-47
2020/12/13 06:31:36;;;;;;;36.30;18.50;;;;;;;2.31;77.90;100514.25;1822550;78;21021;-46
2020/12/13 06:34:04;;;;;;;37.48;18.05;;;;;;;2.31;77.93;100511.56;1822738;78;20977;-48
2020/12/13 06:36:34;;;;;;;36.35;17.00;;;;;;;2.31;77.86;100519.09;1806515;79;21186;-46
2020/12/13 06:39:12;;;;;;;34.00;17.30;;;;;;;2.27;77.99;100504.95;1821825;78;20969;-48
2020/12/13 06:41:44;;;;;;;34.33;17.42;;;;;;;2.31;77.94;100511.56;1822699;78;20906;-47
2020/12/13 06:44:14;;;;;;;37.93;19.42;;;;;;;2.33;77.95;100514.86;1806861;79;21175;-48
2020/12/13 06:46:47;;;;;;;41.83;20.12;;;;;;;2.35;77.92;100518.17;1822634;78;21005;-48
2020/12/13 06:49:16;;;;;;;37.73;18.98;;;;;;;2.34;77.95;100525.93;1822452;78;21413;-48
2020/12/13 06:51:46;;;;;;;29.05;13.88;;;;;;;2.31;77.92;100523.12;1806605;79;21088;-48
2020/12/13 06:54:16;;;;;;;35.35;18.20;;;;;;;2.36;77.98;100527.88;1822354;78;21008;-47
2020/12/13 06:56:46;;;;;;;37.33;16.70;;;;;;;2.36;77.93;100522.51;1806860;79;20989;-47
2020/12/13 06:59:14;;;;;;;36.03;19.23;;;;;;;2.40;77.94;100532.33;1822435;78;21551;-48
2020/12/13 07:01:43;;;;;;;35.80;18.52;;;;;;;2.38;77.90;100537.88;1807039;79;22183;-48
2020/12/13 07:07:20;;;;;;;38.30;20.27;;;;;;;2.42;78.00;100530.25;1873265;75;22197;-49
2020/12/13 07:09:48;;;;;;;24.30;11.50;;;;;;;2.37;77.99;100543.47;1813190;78;21565;-47
2020/12/13 07:12:16;;;;;;;33.15;17.57;;;;;;;2.31;78.10;100539.75;1841358;78;22083;-48
2020/12/13 07:14:45;;;;;;;33.20;18.07;;;;;;;2.25;78.19;100529.84;1782990;80;21016;-47
2020/12/13 07:17:17;;;;;;;42.03;20.00;;;;;;;2.25;78.35;100524.48;1782927;80;21102;-48
2020/12/13 07:19:46;;;;;;;38.73;20.37;;;;;;;2.27;78.33;100525.91;1782990;80;21012;-47
2020/12/13 07:22:14;;;;;;;35.60;18.95;;;;;;;2.27;78.32;100528.59;1783095;79;21530;-47
2020/12/13 07:24:43;;;;;;;36.15;18.30;;;;;;;2.27;78.36;100532.62;1783099;79;22708;-49
2020/12/13 07:27:11;;;;;;;35.38;17.92;;;;;;;2.25;78.36;100535.22;1782831;80;20949;-47
2020/12/13 07:29:39;;;;;;;28.57;16.20;;;;;;;2.24;78.45;100540.28;1783252;80;20937;-48
2020/12/13 07:32:07;;;;;;;33.28;19.35;;;;;;;2.17;78.57;100538.91;1782876;80;21563;-48
2020/12/13 07:34:35;;;;;;;31.87;18.20;;;;;;;2.14;78.78;100545.23;1782898;80;20988;-48
2020/12/13 07:37:03;;;;;;;39.48;19.48;;;;;;;2.13;78.84;100549.77;1783070;79;21499;-47
2020/12/13 07:39:31;;;;;;;35.03;17.35;;;;;;;2.13;78.84;100545.75;1783071;79;21988;-50
2020/12/13 07:41:58;;;;;;;33.18;16.97;;;;;;;2.21;78.84;100554.92;1782962;80;20925;-48
2020/12/13 07:44:33;;;;;;;32.93;17.40;;;;;;;2.23;78.69;100542.14;1782952;80;20926;-48
2020/12/13 07:47:01;;;;;;;34.03;19.15;;;;;;;2.24;78.63;100540.28;1782893;80;20921;-52
2020/12/13 07:49:29;;;;;;;36.08;18.60;;;;;;;2.27;78.64;100542.02;1783005;79;21375;-47
2020/12/13 07:51:57;;;;;;;31.68;17.60;;;;;;;2.29;78.57;100534.60;1783044;80;21187;-49
2020/12/13 07:54:28;;;;;;;35.60;19.23;;;;;;;2.33;78.42;100543.05;1783044;79;20981;-49
2020/12/13 07:57:02;;;;;;;25.05;14.18;;;;;;;2.34;78.33;100547.41;1782949;79;20985;-48
2020/12/13 07:59:31;;;;;;;24.95;14.53;;;;;;;2.34;78.19;100548.75;1782321;79;21491;-48
2020/12/13 08:01:59;;;;;;;23.67;14.63;;;;;;;2.28;78.26;100548.20;1783077;79;21359;-49
2020/12/13 08:04:38;;;;;;;25.55;14.78;;;;;;;2.28;78.28;100549.55;1782880;79;20985;-47
2020/12/13 08:07:10;;;;;;;27.35;16.73;;;;;;;2.28;78.28;100553.09;1782880;78;21008;-47
2020/12/13 08:09:41;;;;;;;27.00;16.25;;;;;;;2.32;78.34;100554.83;1783026;80;20945;-47
2020/12/13 08:12:12;;;;;;;26.75;15.88;;;;;;;2.37;78.23;100547.50;1783071;79;21476;-48
2020/12/13 08:14:41;;;;;;;26.25;13.78;;;;;;;2.36;78.15;100556.08;1782826;80;21253;-49
2020/12/13 08:17:09;;;;;;;24.57;12.82;;;;;;;2.34;78.23;100556.29;1782641;80;21079;-48
2020/12/13 08:19:47;;;;;;;18.15;12.18;;;;;;;2.40;78.19;100561.34;1782178;80;21021;-49
2020/12/13 08:22:20;;;;;;;25.97;14.93;;;;;;;2.46;78.08;100563.20;1753065;80;21033;-49
2020/12/13 08:25:05;;;;;;;21.33;14.40;;;;;;;2.50;77.95;100562.28;1754191;80;21659;-50
2020/12/13 08:27:37;;;;;;;23.32;13.95;;;;;;;2.51;77.85;100551.32;1768514;80;22439;-49
2020/12/13 08:31:32;;;;;;;18.00;10.63;;;;;;;2.57;77.71;100539.74;1884595;74;22486;-50
2020/12/13 08:34:04;;;;;;;17.55;9.45;;;;;;;2.58;77.49;100545.41;1843811;77;21067;-47
2020/12/13 08:36:32;;;;;;;16.25;11.25;;;;;;;2.55;77.38;100555.25;1842145;77;21364;-48
2020/12/13 08:39:07;;;;;;;16.87;11.18;;;;;;;2.51;77.56;100547.30;1854269;75;21589;-48
2020/12/13 08:41:35;;;;;;;19.07;12.70;;;;;;;2.55;77.48;100547.19;1873343;75;20960;-48
2020/12/13 08:44:03;;;;;;;20.27;12.03;;;;;;;2.53;77.36;100547.90;1859688;76;21004;-48
2020/12/13 08:46:41;;;;;;;17.00;10.00;;;;;;;2.57;77.32;100551.01;1857477;75;20940;-49
2020/12/13 08:49:10;;;;;;;17.37;9.93;;;;;;;2.54;77.28;100546.06;1827803;75;22048;-50
2020/12/13 08:51:39;;;;;;;22.02;12.33;;;;;;;2.45;77.32;100522.61;1849353;75;21020;-50
2020/12/13 08:54:08;;;;;;;16.12;11.65;;;;;;;2.58;77.31;100535.19;1845385;77;20991;-51
2020/12/13 08:56:38;;;;;;;18.95;13.00;;;;;;;2.60;77.21;100533.97;1848116;77;21012;-49
2020/12/13 08:59:07;;;;;;;19.70;12.80;;;;;;;2.58;77.14;100532.50;1869209;75;21122;-49
2020/12/13 09:01:39;;;;;;;15.18;10.28;;;;;;;2.50;77.20;100532.22;1861666;75;21666;-49
2020/12/13 09:04:18;;;;;;;14.98;10.13;;;;;;;2.47;77.29;100527.25;1857475;75;21055;-48
2020/12/13 09:06:58;;;;;;;18.60;12.23;;;;;;;2.48;77.35;100529.41;1855445;76;21147;-51
2020/12/13 09:09:34;;;;;;;22.70;13.93;;;;;;;2.50;77.42;100524.16;1848711;75;21503;-49
2020/12/13 09:12:02;;;;;;;19.23;13.13;;;;;;;2.50;77.38;100525.50;1867360;75;20889;-49
2020/12/13 09:14:32;;;;;;;22.52;13.72;;;;;;;2.50;77.39;100522.00;1833208;76;21389;-49
2020/12/13 09:17:00;;;;;;;21.60;12.70;;;;;;;2.48;77.37;100514.13;1835593;77;21093;-49
2020/12/13 09:19:28;;;;;;;16.70;9.90;;;;;;;2.47;77.32;100513.82;1828626;77;21051;-48
2020/12/13 09:22:00;;;;;;;20.77;12.47;;;;;;;2.49;77.28;100519.00;1839019;77;21490;-48
2020/12/13 09:24:35;;;;;;;20.40;12.53;;;;;;;2.46;77.31;100513.52;1848287;77;21522;-49
2020/12/13 09:27:11;;;;;;;17.98;12.10;;;;;;;2.45;77.34;100513.22;1838356;77;23606;-49
2020/12/13 09:29:39;;;;;;;35.75;18.17;;;;;;;2.47;77.31;100512.48;1850095;77;20992;-50
2020/12/13 09:32:07;;;;;;;23.75;14.00;;;;;;;2.49;77.19;100503.72;1855838;77;21603;-47
2020/12/13 09:34:36;;;;;;;19.87;13.15;;;;;;;2.50;77.13;100499.98;1826625;77;20967;-48
2020/12/13 09:37:06;;;;;;;21.23;11.55;;;;;;;2.51;77.09;100502.16;1834786;77;21637;-48
2020/12/13 09:39:34;;;;;;;20.55;11.75;;;;;;;2.54;76.99;100498.55;1848129;77;21351;-48
2020/12/13 09:42:01;;;;;;;19.37;11.22;;;;;;;2.53;76.91;100504.10;1809333;77;21190;-48
2020/12/13 09:44:29;;;;;;;18.50;12.03;;;;;;;2.51;76.86;100502.16;1846834;77;21275;-50
2020/12/13 09:46:58;;;;;;;21.65;13.30;;;;;;;2.45;77.02;100497.63;1837141;77;21601;-48
2020/12/13 09:49:27;;;;;;;23.65;13.72;;;;;;;2.46;77.04;100492.03;1858270;77;21101;-50
2020/12/13 09:52:02;;;;;;;18.02;12.70;;;;;;;2.47;76.98;100496.36;1859114;77;21311;-50
2020/12/13 09:54:30;;;;;;;15.75;10.13;;;;;;;2.47;76.99;100493.68;1836713;77;21185;-51
2020/12/13 09:56:58;;;;;;;16.55;11.70;;;;;;;2.48;76.96;100485.09;1852118;77;21768;-47
2020/12/13 09:59:27;;;;;;;18.80;12.53;;;;;;;2.41;76.99;100483.78;1841450;77;21222;-47
2020/12/13 10:01:54;;;;;;;18.90;12.35;;;;;;;2.38;77.15;100480.16;1859727;77;21100;-50
2020/12/13 10:04:23;;;;;;;21.17;13.60;;;;;;;2.40;77.17;100478.10;1829888;77;21372;-48
2020/12/13 10:09:26;;;;;;;19.65;12.03;;;;;;;2.37;77.17;100465.08;1852043;77;21594;-48
2020/12/13 10:11:54;;;;;;;18.67;11.50;;;;;;;2.36;77.22;100476.04;1857856;77;21198;-49
2020/12/13 10:14:22;;;;;;;18.65;12.28;;;;;;;2.33;77.34;100474.58;1859029;77;21130;-48
2020/12/13 10:16:51;;;;;;;17.07;10.82;;;;;;;2.33;77.43;100472.75;1837012;77;22125;-47
2020/12/13 10:19:19;;;;;;;19.82;11.53;;;;;;;2.40;77.39;100468.70;1852982;77;21068;-46
2020/12/13 10:21:47;;;;;;;21.35;12.82;;;;;;;2.42;77.15;100470.65;1856316;77;21451;-46
2020/12/13 10:24:15;;;;;;;19.20;11.83;;;;;;;2.41;77.26;100466.84;1839756;77;20924;-46
2020/12/13 10:26:43;;;;;;;19.40;11.68;;;;;;;2.45;77.23;100466.22;1840528;77;21091;-47
2020/12/13 10:29:14;;;;;;;18.10;10.45;;;;;;;2.50;77.12;100469.62;1827502;77;22068;-45
2020/12/13 10:31:43;;;;;;;17.40;10.60;;;;;;;2.52;77.03;100471.05;1839435;77;21158;-47
2020/12/13 10:34:11;;;;;;;20.55;12.37;;;;;;;2.51;76.92;100468.06;1837339;77;20984;-47
2020/12/13 10:36:39;;;;;;;18.40;12.15;;;;;;;2.54;76.89;100474.37;1836648;77;21115;-46
2020/12/13 10:39:08;;;;;;;19.32;12.78;;;;;;;2.55;76.77;100473.84;1807258;78;21174;-49
2020/12/13 10:41:37;;;;;;;15.88;10.58;;;;;;;2.54;76.79;100466.31;1837939;77;22089;-46
2020/12/13 10:44:05;;;;;;;14.45;8.73;;;;;;;2.62;76.65;100464.42;1834311;77;21178;-48
2020/12/13 10:46:34;;;;;;;12.75;9.05;;;;;;;2.64;76.46;100468.57;1829609;77;21894;-47
2020/12/13 10:49:02;;;;;;;12.93;9.05;;;;;;;2.61;76.43;100470.32;1805750;77;21215;-48
2020/12/13 10:51:30;;;;;;;13.08;8.98;;;;;;;2.58;76.54;100470.20;1838029;77;21562;-47
2020/12/13 10:53:58;;;;;;;17.57;9.63;;;;;;;2.53;76.53;100466.50;1835544;77;22293;-48
2020/12/13 10:56:26;;;;;;;12.65;9.28;;;;;;;2.50;76.71;100472.31;1808585;77;21017;-49
2020/12/13 10:58:54;;;;;;;14.18;8.38;;;;;;;2.48;76.82;100471.67;1836023;77;21474;-48
2020/12/13 11:01:22;;;;;;;11.80;8.08;;;;;;;2.51;76.84;100473.43;1836731;77;21089;-47
2020/12/13 11:03:50;;;;;;;13.80;8.53;;;;;;;2.52;76.83;100467.02;1833949;77;21122;-47
2020/12/13 11:06:17;;;;;;;13.20;9.43;;;;;;;2.53;76.77;100475.38;1835454;77;21267;-48
2020/12/13 11:08:45;;;;;;;13.58;9.35;;;;;;;2.51;76.92;100473.95;1831325;77;21097;-51
2020/12/13 11:11:13;;;;;;;14.73;8.53;;;;;;;2.51;76.95;100472.61;1827578;77;21460;-47
2020/12/13 11:13:42;;;;;;;13.75;7.90;;;;;;;2.54;76.89;100467.66;1813012;77;21084;-51
2020/12/13 11:16:11;;;;;;;12.68;7.37;;;;;;;2.58;76.84;100465.35;1816808;77;21064;-47
2020/12/13 11:18:39;;;;;;;14.15;8.68;;;;;;;2.60;76.85;100466.81;1825337;78;21441;-47
2020/12/13 11:21:07;;;;;;;11.80;8.78;;;;;;;2.59;76.77;100466.51;1825368;78;21550;-46
2020/12/13 11:23:35;;;;;;;11.15;8.45;;;;;;;2.57;76.80;100469.08;1788582;78;21590;-47
2020/12/13 11:26:02;;;;;;;12.68;9.18;;;;;;;2.55;76.71;100467.95;1787249;78;21138;-47
2020/12/13 11:28:31;;;;;;;10.65;6.72;;;;;;;2.52;76.80;100469.70;1793214;78;21504;-47
2020/12/13 11:30:59;;;;;;;10.70;6.70;;;;;;;2.52;76.87;100461.65;1812846;77;22013;-46
2020/12/13 11:33:26;;;;;;;10.20;6.28;;;;;;;2.54;76.99;100462.80;1832320;77;22052;-47
2020/12/13 11:35:54;;;;;;;8.35;6.05;;;;;;;2.54;76.89;100467.66;1834238;77;21114;-52
2020/12/13 11:38:21;;;;;;;9.83;8.15;;;;;;;2.53;76.90;100471.88;1824600;78;21082;-48
2020/12/13 11:40:49;;;;;;;13.25;8.35;;;;;;;2.46;76.93;100461.15;1824924;78;21134;-50
2020/12/13 11:43:17;;;;;;;11.18;8.85;;;;;;;2.41;77.12;100462.30;1824668;77;21206;-48
2020/12/13 11:45:46;;;;;;;11.22;7.20;;;;;;;2.42;77.14;100462.59;1812652;78;21126;-50